sensor_id;sensor_type;location;lat;lon;timestamp;P1;durP1;ratioP1;P2;durP2;ratioP2
65238;SDS011;51827;51.186;6.926;2023-01-26T00:00:22;9.90;;;6.40;;
65238;SDS011;51827;51.186;6.926;2023-01-26T00:01:23;9.20;;;5.80;;
65238;SDS011;51827;51.186;6.926;2023-01-26T00:02:25;9.88;;;6.57;;
65238;SDS011;51827;51.186;6.926;2023-01-26T00:03:26;10.30;;;6.67;;
65238;SDS011;51827;51.186;6.926;2023-01-26T00:04:26;10.23;;;6.30;;
65238;SDS011;51827;51.186;6.926;2023-01-26T00:05:26;10.23;;;6.63;;
65238;SDS011;51827;51.186;6.926;2023-01-26T00:06:27;10.10;;;6.67;;
65238;SDS011;51827;51.186;6.926;2023-01-26T00:07:27;10.30;;;6.30;;
65238;SDS011;51827;51.186;6.926;2023-01-26T00:08:28;9.15;;;5.97;;
65238;SDS011;51827;51.186;6.926;2023-01-26T00:09:28;10.23;;;6.73;;
65238;SDS011;51827;51.186;6.926;2023-01-26T00:10:28;9.17;;;5.97;;
65238;SDS011;51827;51.186;6.926;2023-01-26T00:11:29;9.00;;;6.30;;
65238;SDS011;51827;51.186;6.926;2023-01-26T00:12:29;9.93;;;6.67;;
65238;SDS011;51827;51.186;6.926;2023-01-26T00:13:29;9.63;;;6.30;;
65238;SDS011;51827;51.186;6.926;2023-01-26T00:14:29;8.47;;;6.47;;
65238;SDS011;51827;51.186;6.926;2023-01-26T00:15:33;8.63;;;6.03;;
65238;SDS011;51827;51.186;6.926;2023-01-26T00:16:34;9.95;;;6.85;;
65238;SDS011;51827;51.186;6.926;2023-01-26T00:17:34;8.30;;;5.97;;
65238;SDS011;51827;51.186;6.926;2023-01-26T00:18:35;10.43;;;6.60;;
65238;SDS011;51827;51.186;6.926;2023-01-26T00:19:36;9.90;;;6.22;;
65238;SDS011;51827;51.186;6.926;2023-01-26T00:20:37;8.43;;;6.03;;
65238;SDS011;51827;51.186;6.926;2023-01-26T00:21:37;9.67;;;6.37;;
65238;SDS011;51827;51.186;6.926;2023-01-26T00:22:37;8.80;;;6.23;;
65238;SDS011;51827;51.186;6.926;2023-01-26T00:23:38;10.47;;;6.77;;
65238;SDS011;51827;51.186;6.926;2023-01-26T00:24:38;9.73;;;6.13;;
65238;SDS011;51827;51.186;6.926;2023-01-26T00:25:38;9.93;;;6.43;;
65238;SDS011;51827;51.186;6.926;2023-01-26T00:26:38;8.83;;;5.80;;
65238;SDS011;51827;51.186;6.926;2023-01-26T00:27:39;8.40;;;6.00;;
65238;SDS011;51827;51.186;6.926;2023-01-26T00:28:39;10.30;;;6.60;;
65238;SDS011;51827;51.186;6.926;2023-01-26T00:29:39;9.70;;;6.38;;
65238;SDS011;51827;51.186;6.926;2023-01-26T00:30:40;9.60;;;6.40;;
65238;SDS011;51827;51.186;6.926;2023-01-26T00:31:40;10.03;;;6.93;;
65238;SDS011;51827;51.186;6.926;2023-01-26T00:32:40;9.27;;;6.67;;
65238;SDS011;51827;51.186;6.926;2023-01-26T00:33:41;9.10;;;6.47;;
65238;SDS011;51827;51.186;6.926;2023-01-26T00:34:41;9.53;;;6.67;;
65238;SDS011;51827;51.186;6.926;2023-01-26T00:35:41;9.90;;;6.83;;
65238;SDS011;51827;51.186;6.926;2023-01-26T00:36:42;10.50;;;7.30;;
65238;SDS011;51827;51.186;6.926;2023-01-26T00:37:42;9.60;;;6.77;;
65238;SDS011;51827;51.186;6.926;2023-01-26T00:38:43;9.40;;;6.33;;
65238;SDS011;51827;51.186;6.926;2023-01-26T00:39:43;9.57;;;6.28;;
65238;SDS011;51827;51.186;6.926;2023-01-26T00:40:43;9.07;;;6.37;;
65238;SDS011;51827;51.186;6.926;2023-01-26T00:41:43;10.17;;;6.57;;
65238;SDS011;51827;51.186;6.926;2023-01-26T00:42:44;8.67;;;6.40;;
65238;SDS011;51827;51.186;6.926;2023-01-26T00:43:44;9.43;;;6.73;;
65238;SDS011;51827;51.186;6.926;2023-01-26T00:44:44;9.23;;;6.43;;
65238;SDS011;51827;51.186;6.926;2023-01-26T00:45:44;10.40;;;6.67;;
65238;SDS011;51827;51.186;6.926;2023-01-26T00:46:45;9.80;;;6.43;;
65238;SDS011;51827;51.186;6.926;2023-01-26T00:47:45;10.73;;;6.70;;
65238;SDS011;51827;51.186;6.926;2023-01-26T00:48:45;8.90;;;6.20;;
65238;SDS011;51827;51.186;6.926;2023-01-26T00:49:45;10.20;;;6.67;;
65238;SDS011;51827;51.186;6.926;2023-01-26T00:50:46;9.33;;;6.67;;
65238;SDS011;51827;51.186;6.926;2023-01-26T00:51:46;9.90;;;6.93;;
65238;SDS011;51827;51.186;6.926;2023-01-26T00:52:46;11.13;;;7.17;;
65238;SDS011;51827;51.186;6.926;2023-01-26T00:53:46;10.10;;;6.50;;
65238;SDS011;51827;51.186;6.926;2023-01-26T00:54:47;11.10;;;6.97;;
65238;SDS011;51827;51.186;6.926;2023-01-26T00:55:47;9.23;;;6.37;;
65238;SDS011;51827;51.186;6.926;2023-01-26T00:56:47;9.77;;;6.80;;
65238;SDS011;51827;51.186;6.926;2023-01-26T00:57:48;11.00;;;7.00;;
65238;SDS011;51827;51.186;6.926;2023-01-26T00:58:48;10.38;;;6.60;;
65238;SDS011;51827;51.186;6.926;2023-01-26T00:59:48;9.20;;;6.57;;
65238;SDS011;51827;51.186;6.926;2023-01-26T01:00:49;9.57;;;6.73;;
65238;SDS011;51827;51.186;6.926;2023-01-26T01:01:49;10.40;;;7.07;;
65238;SDS011;51827;51.186;6.926;2023-01-26T01:02:50;11.68;;;7.07;;
65238;SDS011;51827;51.186;6.926;2023-01-26T01:03:51;9.50;;;7.13;;
65238;SDS011;51827;51.186;6.926;2023-01-26T01:04:51;9.80;;;6.73;;
65238;SDS011;51827;51.186;6.926;2023-01-26T01:05:51;10.43;;;7.10;;
65238;SDS011;51827;51.186;6.926;2023-01-26T01:06:51;8.77;;;6.50;;
65238;SDS011;51827;51.186;6.926;2023-01-26T01:07:52;9.50;;;6.47;;
65238;SDS011;51827;51.186;6.926;2023-01-26T01:08:52;9.60;;;6.43;;
65238;SDS011;51827;51.186;6.926;2023-01-26T01:09:52;9.03;;;6.30;;
65238;SDS011;51827;51.186;6.926;2023-01-26T01:11:03;9.53;;;6.83;;
65238;SDS011;51827;51.186;6.926;2023-01-26T01:12:08;9.48;;;6.72;;
65238;SDS011;51827;51.186;6.926;2023-01-26T01:13:08;10.83;;;6.60;;
65238;SDS011;51827;51.186;6.926;2023-01-26T01:14:09;9.82;;;6.55;;
65238;SDS011;51827;51.186;6.926;2023-01-26T01:15:09;11.25;;;7.07;;
65238;SDS011;51827;51.186;6.926;2023-01-26T01:16:11;10.60;;;7.20;;
65238;SDS011;51827;51.186;6.926;2023-01-26T01:17:12;10.02;;;6.72;;
65238;SDS011;51827;51.186;6.926;2023-01-26T01:18:13;10.10;;;6.77;;
65238;SDS011;51827;51.186;6.926;2023-01-26T01:19:14;9.77;;;6.57;;
65238;SDS011;51827;51.186;6.926;2023-01-26T01:20:15;10.48;;;7.07;;
65238;SDS011;51827;51.186;6.926;2023-01-26T01:21:16;11.35;;;7.45;;
65238;SDS011;51827;51.186;6.926;2023-01-26T01:22:16;9.23;;;6.60;;
65238;SDS011;51827;51.186;6.926;2023-01-26T01:23:16;10.47;;;7.37;;
65238;SDS011;51827;51.186;6.926;2023-01-26T01:24:17;10.13;;;7.13;;
65238;SDS011;51827;51.186;6.926;2023-01-26T01:25:17;11.23;;;7.17;;
65238;SDS011;51827;51.186;6.926;2023-01-26T01:26:17;9.83;;;6.67;;
65238;SDS011;51827;51.186;6.926;2023-01-26T01:27:18;10.35;;;7.38;;
65238;SDS011;51827;51.186;6.926;2023-01-26T01:28:18;10.63;;;7.20;;
65238;SDS011;51827;51.186;6.926;2023-01-26T01:29:18;9.27;;;6.40;;
65238;SDS011;51827;51.186;6.926;2023-01-26T01:30:19;10.73;;;7.37;;
65238;SDS011;51827;51.186;6.926;2023-01-26T01:31:19;9.97;;;7.20;;
65238;SDS011;51827;51.186;6.926;2023-01-26T01:32:19;9.73;;;6.77;;
65238;SDS011;51827;51.186;6.926;2023-01-26T01:33:21;10.93;;;7.10;;
65238;SDS011;51827;51.186;6.926;2023-01-26T01:34:22;10.88;;;7.25;;
65238;SDS011;51827;51.186;6.926;2023-01-26T01:35:22;10.38;;;7.10;;
65238;SDS011;51827;51.186;6.926;2023-01-26T01:36:22;10.33;;;7.00;;
65238;SDS011;51827;51.186;6.926;2023-01-26T01:37:23;12.23;;;7.45;;
65238;SDS011;51827;51.186;6.926;2023-01-26T01:38:24;10.50;;;7.30;;
65238;SDS011;51827;51.186;6.926;2023-01-26T01:39:24;10.30;;;7.20;;
65238;SDS011;51827;51.186;6.926;2023-01-26T01:40:24;11.27;;;7.43;;
65238;SDS011;51827;51.186;6.926;2023-01-26T01:41:26;10.87;;;7.10;;
65238;SDS011;51827;51.186;6.926;2023-01-26T01:42:26;10.18;;;6.78;;
65238;SDS011;51827;51.186;6.926;2023-01-26T01:43:27;10.90;;;7.63;;
65238;SDS011;51827;51.186;6.926;2023-01-26T01:44:27;10.60;;;6.85;;
65238;SDS011;51827;51.186;6.926;2023-01-26T01:45:34;10.33;;;6.93;;
65238;SDS011;51827;51.186;6.926;2023-01-26T01:46:36;9.52;;;6.68;;
65238;SDS011;51827;51.186;6.926;2023-01-26T01:47:37;9.97;;;6.77;;
65238;SDS011;51827;51.186;6.926;2023-01-26T01:48:40;9.30;;;6.90;;
65238;SDS011;51827;51.186;6.926;2023-01-26T01:50:04;9.07;;;6.72;;
65238;SDS011;51827;51.186;6.926;2023-01-26T01:51:06;9.80;;;7.05;;
65238;SDS011;51827;51.186;6.926;2023-01-26T01:52:17;10.18;;;7.00;;
65238;SDS011;51827;51.186;6.926;2023-01-26T01:53:24;10.55;;;7.22;;
65238;SDS011;51827;51.186;6.926;2023-01-26T01:54:32;10.13;;;7.05;;
65238;SDS011;51827;51.186;6.926;2023-01-26T01:55:37;10.60;;;7.40;;
65238;SDS011;51827;51.186;6.926;2023-01-26T01:56:38;10.63;;;7.35;;
65238;SDS011;51827;51.186;6.926;2023-01-26T01:57:43;10.68;;;7.35;;
65238;SDS011;51827;51.186;6.926;2023-01-26T01:58:48;10.27;;;7.22;;
65238;SDS011;51827;51.186;6.926;2023-01-26T01:59:52;10.25;;;7.50;;
65238;SDS011;51827;51.186;6.926;2023-01-26T02:00:58;10.73;;;7.40;;
65238;SDS011;51827;51.186;6.926;2023-01-26T02:01:59;10.60;;;7.10;;
65238;SDS011;51827;51.186;6.926;2023-01-26T02:03:03;10.10;;;7.25;;
65238;SDS011;51827;51.186;6.926;2023-01-26T02:04:05;10.23;;;7.10;;
65238;SDS011;51827;51.186;6.926;2023-01-26T02:05:09;10.85;;;7.55;;
65238;SDS011;51827;51.186;6.926;2023-01-26T02:07:27;10.05;;;7.28;;
65238;SDS011;51827;51.186;6.926;2023-01-26T02:08:32;11.60;;;7.68;;
65238;SDS011;51827;51.186;6.926;2023-01-26T02:09:37;10.00;;;7.10;;
65238;SDS011;51827;51.186;6.926;2023-01-26T02:11:40;11.07;;;7.17;;
65238;SDS011;51827;51.186;6.926;2023-01-26T02:12:44;11.68;;;7.75;;
65238;SDS011;51827;51.186;6.926;2023-01-26T02:13:46;9.82;;;6.97;;
65238;SDS011;51827;51.186;6.926;2023-01-26T02:15:49;10.00;;;7.00;;
65238;SDS011;51827;51.186;6.926;2023-01-26T02:17:50;11.57;;;7.43;;
65238;SDS011;51827;51.186;6.926;2023-01-26T02:18:51;12.30;;;7.75;;
65238;SDS011;51827;51.186;6.926;2023-01-26T02:21:24;10.35;;;7.40;;
65238;SDS011;51827;51.186;6.926;2023-01-26T02:22:27;11.20;;;7.77;;
65238;SDS011;51827;51.186;6.926;2023-01-26T02:24:54;10.85;;;7.28;;
65238;SDS011;51827;51.186;6.926;2023-01-26T02:26:12;10.88;;;7.18;;
65238;SDS011;51827;51.186;6.926;2023-01-26T02:27:15;13.07;;;8.05;;
65238;SDS011;51827;51.186;6.926;2023-01-26T02:28:15;11.57;;;7.80;;
65238;SDS011;51827;51.186;6.926;2023-01-26T02:29:17;11.18;;;7.40;;
65238;SDS011;51827;51.186;6.926;2023-01-26T02:30:17;11.77;;;7.63;;
65238;SDS011;51827;51.186;6.926;2023-01-26T02:31:18;12.48;;;7.65;;
65238;SDS011;51827;51.186;6.926;2023-01-26T02:32:19;12.15;;;8.25;;
65238;SDS011;51827;51.186;6.926;2023-01-26T02:33:20;12.07;;;7.63;;
65238;SDS011;51827;51.186;6.926;2023-01-26T02:34:21;10.90;;;7.45;;
65238;SDS011;51827;51.186;6.926;2023-01-26T02:35:22;11.18;;;7.00;;
65238;SDS011;51827;51.186;6.926;2023-01-26T02:36:24;11.20;;;7.53;;
65238;SDS011;51827;51.186;6.926;2023-01-26T02:37:26;10.98;;;7.60;;
65238;SDS011;51827;51.186;6.926;2023-01-26T02:38:28;11.60;;;7.63;;
65238;SDS011;51827;51.186;6.926;2023-01-26T02:40:52;10.88;;;7.80;;
65238;SDS011;51827;51.186;6.926;2023-01-26T02:41:55;11.43;;;7.53;;
65238;SDS011;51827;51.186;6.926;2023-01-26T02:42:55;9.93;;;7.27;;
65238;SDS011;51827;51.186;6.926;2023-01-26T02:43:55;10.93;;;7.43;;
65238;SDS011;51827;51.186;6.926;2023-01-26T02:44:56;11.37;;;7.63;;
65238;SDS011;51827;51.186;6.926;2023-01-26T02:45:56;11.30;;;7.43;;
65238;SDS011;51827;51.186;6.926;2023-01-26T02:46:56;9.83;;;7.33;;
65238;SDS011;51827;51.186;6.926;2023-01-26T02:47:57;11.33;;;8.00;;
65238;SDS011;51827;51.186;6.926;2023-01-26T02:48:57;10.90;;;7.23;;
65238;SDS011;51827;51.186;6.926;2023-01-26T02:49:57;11.00;;;7.77;;
65238;SDS011;51827;51.186;6.926;2023-01-26T02:50:57;11.73;;;7.93;;
65238;SDS011;51827;51.186;6.926;2023-01-26T02:51:58;11.80;;;8.00;;
65238;SDS011;51827;51.186;6.926;2023-01-26T02:52:58;10.90;;;7.83;;
65238;SDS011;51827;51.186;6.926;2023-01-26T02:53:59;10.38;;;7.43;;
65238;SDS011;51827;51.186;6.926;2023-01-26T02:54:59;11.17;;;7.50;;
65238;SDS011;51827;51.186;6.926;2023-01-26T02:55:59;10.83;;;7.33;;
65238;SDS011;51827;51.186;6.926;2023-01-26T02:56:59;10.50;;;7.63;;
65238;SDS011;51827;51.186;6.926;2023-01-26T02:58:01;11.87;;;7.47;;
65238;SDS011;51827;51.186;6.926;2023-01-26T02:59:03;11.38;;;7.82;;
65238;SDS011;51827;51.186;6.926;2023-01-26T03:00:04;13.53;;;8.13;;
65238;SDS011;51827;51.186;6.926;2023-01-26T03:01:07;11.63;;;8.30;;
65238;SDS011;51827;51.186;6.926;2023-01-26T03:02:07;11.17;;;7.73;;
65238;SDS011;51827;51.186;6.926;2023-01-26T03:03:15;11.23;;;8.20;;
65238;SDS011;51827;51.186;6.926;2023-01-26T03:05:20;10.63;;;7.77;;
65238;SDS011;51827;51.186;6.926;2023-01-26T03:06:20;11.67;;;8.10;;
65238;SDS011;51827;51.186;6.926;2023-01-26T03:07:21;10.38;;;7.32;;
65238;SDS011;51827;51.186;6.926;2023-01-26T03:08:21;11.53;;;7.50;;
65238;SDS011;51827;51.186;6.926;2023-01-26T03:09:21;10.90;;;7.23;;
65238;SDS011;51827;51.186;6.926;2023-01-26T03:10:21;11.37;;;7.80;;
65238;SDS011;51827;51.186;6.926;2023-01-26T03:11:22;11.23;;;7.50;;
65238;SDS011;51827;51.186;6.926;2023-01-26T03:12:22;11.33;;;7.97;;
65238;SDS011;51827;51.186;6.926;2023-01-26T03:13:22;10.30;;;7.73;;
65238;SDS011;51827;51.186;6.926;2023-01-26T03:14:22;10.17;;;7.67;;
65238;SDS011;51827;51.186;6.926;2023-01-26T03:15:23;11.73;;;7.60;;
65238;SDS011;51827;51.186;6.926;2023-01-26T03:16:23;11.37;;;7.50;;
65238;SDS011;51827;51.186;6.926;2023-01-26T03:17:23;9.93;;;6.90;;
65238;SDS011;51827;51.186;6.926;2023-01-26T03:18:23;10.73;;;7.27;;
65238;SDS011;51827;51.186;6.926;2023-01-26T03:19:24;11.60;;;7.90;;
65238;SDS011;51827;51.186;6.926;2023-01-26T03:20:24;10.40;;;7.17;;
65238;SDS011;51827;51.186;6.926;2023-01-26T03:21:24;12.47;;;7.83;;
65238;SDS011;51827;51.186;6.926;2023-01-26T03:22:24;10.73;;;7.67;;
65238;SDS011;51827;51.186;6.926;2023-01-26T03:23:25;11.57;;;7.73;;
65238;SDS011;51827;51.186;6.926;2023-01-26T03:24:25;12.43;;;7.87;;
65238;SDS011;51827;51.186;6.926;2023-01-26T03:25:25;11.00;;;7.43;;
65238;SDS011;51827;51.186;6.926;2023-01-26T03:26:25;10.60;;;8.17;;
65238;SDS011;51827;51.186;6.926;2023-01-26T03:27:26;10.77;;;7.70;;
65238;SDS011;51827;51.186;6.926;2023-01-26T03:28:26;12.20;;;8.07;;
65238;SDS011;51827;51.186;6.926;2023-01-26T03:29:27;11.20;;;7.67;;
65238;SDS011;51827;51.186;6.926;2023-01-26T03:30:27;10.63;;;7.10;;
65238;SDS011;51827;51.186;6.926;2023-01-26T03:31:27;10.70;;;7.47;;
65238;SDS011;51827;51.186;6.926;2023-01-26T03:32:28;10.07;;;7.57;;
65238;SDS011;51827;51.186;6.926;2023-01-26T03:33:28;10.07;;;7.40;;
65238;SDS011;51827;51.186;6.926;2023-01-26T03:34:28;12.83;;;7.90;;
65238;SDS011;51827;51.186;6.926;2023-01-26T03:35:28;10.97;;;7.67;;
65238;SDS011;51827;51.186;6.926;2023-01-26T03:36:29;12.07;;;7.60;;
65238;SDS011;51827;51.186;6.926;2023-01-26T03:37:29;11.53;;;8.10;;
65238;SDS011;51827;51.186;6.926;2023-01-26T03:38:29;11.10;;;7.70;;
65238;SDS011;51827;51.186;6.926;2023-01-26T03:39:29;10.20;;;7.27;;
65238;SDS011;51827;51.186;6.926;2023-01-26T03:40:30;11.97;;;7.90;;
65238;SDS011;51827;51.186;6.926;2023-01-26T03:41:30;10.90;;;7.53;;
65238;SDS011;51827;51.186;6.926;2023-01-26T03:42:30;11.77;;;7.93;;
65238;SDS011;51827;51.186;6.926;2023-01-26T03:43:30;12.50;;;8.13;;
65238;SDS011;51827;51.186;6.926;2023-01-26T03:44:31;14.43;;;8.43;;
65238;SDS011;51827;51.186;6.926;2023-01-26T03:45:31;11.47;;;7.63;;
65238;SDS011;51827;51.186;6.926;2023-01-26T03:46:31;9.37;;;7.00;;
65238;SDS011;51827;51.186;6.926;2023-01-26T03:47:32;10.87;;;7.43;;
65238;SDS011;51827;51.186;6.926;2023-01-26T03:48:33;11.93;;;7.78;;
65238;SDS011;51827;51.186;6.926;2023-01-26T03:49:33;11.50;;;7.83;;
65238;SDS011;51827;51.186;6.926;2023-01-26T03:50:34;13.77;;;8.37;;
65238;SDS011;51827;51.186;6.926;2023-01-26T03:51:34;11.55;;;7.50;;
65238;SDS011;51827;51.186;6.926;2023-01-26T03:52:34;11.33;;;8.20;;
65238;SDS011;51827;51.186;6.926;2023-01-26T03:53:35;10.93;;;7.40;;
65238;SDS011;51827;51.186;6.926;2023-01-26T03:54:35;12.60;;;7.90;;
65238;SDS011;51827;51.186;6.926;2023-01-26T03:55:35;11.87;;;7.97;;
65238;SDS011;51827;51.186;6.926;2023-01-26T03:56:35;10.17;;;7.77;;
65238;SDS011;51827;51.186;6.926;2023-01-26T03:57:36;10.93;;;7.53;;
65238;SDS011;51827;51.186;6.926;2023-01-26T03:58:36;10.67;;;7.80;;
65238;SDS011;51827;51.186;6.926;2023-01-26T03:59:36;10.57;;;7.57;;
65238;SDS011;51827;51.186;6.926;2023-01-26T04:00:36;11.27;;;7.73;;
65238;SDS011;51827;51.186;6.926;2023-01-26T04:01:38;11.53;;;8.07;;
65238;SDS011;51827;51.186;6.926;2023-01-26T04:02:39;11.20;;;7.57;;
65238;SDS011;51827;51.186;6.926;2023-01-26T04:03:40;12.48;;;8.13;;
65238;SDS011;51827;51.186;6.926;2023-01-26T04:04:40;12.00;;;7.33;;
65238;SDS011;51827;51.186;6.926;2023-01-26T04:05:41;11.10;;;8.07;;
65238;SDS011;51827;51.186;6.926;2023-01-26T04:06:42;10.60;;;7.77;;
65238;SDS011;51827;51.186;6.926;2023-01-26T04:07:44;11.10;;;7.60;;
65238;SDS011;51827;51.186;6.926;2023-01-26T04:08:47;11.77;;;8.00;;
65238;SDS011;51827;51.186;6.926;2023-01-26T04:09:47;11.02;;;7.47;;
65238;SDS011;51827;51.186;6.926;2023-01-26T04:10:51;11.27;;;7.97;;
65238;SDS011;51827;51.186;6.926;2023-01-26T04:11:52;11.68;;;7.50;;
65238;SDS011;51827;51.186;6.926;2023-01-26T04:12:53;11.53;;;8.10;;
65238;SDS011;51827;51.186;6.926;2023-01-26T04:13:53;11.70;;;7.77;;
65238;SDS011;51827;51.186;6.926;2023-01-26T04:14:53;11.40;;;7.60;;
65238;SDS011;51827;51.186;6.926;2023-01-26T04:15:53;10.47;;;7.90;;
65238;SDS011;51827;51.186;6.926;2023-01-26T04:16:54;12.43;;;7.73;;
65238;SDS011;51827;51.186;6.926;2023-01-26T04:17:54;11.23;;;7.55;;
65238;SDS011;51827;51.186;6.926;2023-01-26T04:18:54;12.60;;;7.43;;
65238;SDS011;51827;51.186;6.926;2023-01-26T04:19:54;12.10;;;8.23;;
65238;SDS011;51827;51.186;6.926;2023-01-26T04:20:55;10.87;;;7.50;;
65238;SDS011;51827;51.186;6.926;2023-01-26T04:21:57;11.33;;;7.40;;
65238;SDS011;51827;51.186;6.926;2023-01-26T04:22:58;14.38;;;8.30;;
65238;SDS011;51827;51.186;6.926;2023-01-26T04:23:59;11.70;;;8.00;;
65238;SDS011;51827;51.186;6.926;2023-01-26T04:25:00;11.90;;;7.70;;
65238;SDS011;51827;51.186;6.926;2023-01-26T04:26:00;11.00;;;7.73;;
65238;SDS011;51827;51.186;6.926;2023-01-26T04:27:00;10.53;;;7.70;;
65238;SDS011;51827;51.186;6.926;2023-01-26T04:28:01;10.63;;;7.23;;
65238;SDS011;51827;51.186;6.926;2023-01-26T04:29:05;10.70;;;7.70;;
65238;SDS011;51827;51.186;6.926;2023-01-26T04:30:08;11.73;;;8.07;;
65238;SDS011;51827;51.186;6.926;2023-01-26T04:31:10;11.15;;;7.68;;
65238;SDS011;51827;51.186;6.926;2023-01-26T04:32:10;11.53;;;7.80;;
65238;SDS011;51827;51.186;6.926;2023-01-26T04:33:10;11.40;;;7.57;;
65238;SDS011;51827;51.186;6.926;2023-01-26T04:34:12;11.07;;;7.53;;
65238;SDS011;51827;51.186;6.926;2023-01-26T04:35:13;11.75;;;7.95;;
65238;SDS011;51827;51.186;6.926;2023-01-26T04:36:13;13.90;;;8.23;;
65238;SDS011;51827;51.186;6.926;2023-01-26T04:37:14;11.93;;;8.47;;
65238;SDS011;51827;51.186;6.926;2023-01-26T04:38:14;14.10;;;8.20;;
65238;SDS011;51827;51.186;6.926;2023-01-26T04:39:14;11.27;;;7.40;;
65238;SDS011;51827;51.186;6.926;2023-01-26T04:40:14;9.87;;;7.17;;
65238;SDS011;51827;51.186;6.926;2023-01-26T04:41:15;12.00;;;7.47;;
65238;SDS011;51827;51.186;6.926;2023-01-26T04:42:15;10.55;;;7.65;;
65238;SDS011;51827;51.186;6.926;2023-01-26T04:43:16;10.30;;;7.53;;
65238;SDS011;51827;51.186;6.926;2023-01-26T04:44:16;11.10;;;7.33;;
65238;SDS011;51827;51.186;6.926;2023-01-26T04:45:16;10.87;;;7.50;;
65238;SDS011;51827;51.186;6.926;2023-01-26T04:46:16;10.83;;;7.93;;
65238;SDS011;51827;51.186;6.926;2023-01-26T04:47:17;10.80;;;7.47;;
65238;SDS011;51827;51.186;6.926;2023-01-26T04:48:18;11.02;;;7.53;;
65238;SDS011;51827;51.186;6.926;2023-01-26T04:49:18;11.00;;;7.90;;
65238;SDS011;51827;51.186;6.926;2023-01-26T04:50:18;9.53;;;6.73;;
65238;SDS011;51827;51.186;6.926;2023-01-26T04:51:19;11.03;;;7.77;;
65238;SDS011;51827;51.186;6.926;2023-01-26T04:52:20;13.80;;;8.48;;
65238;SDS011;51827;51.186;6.926;2023-01-26T04:53:20;11.60;;;8.10;;
65238;SDS011;51827;51.186;6.926;2023-01-26T04:54:21;13.13;;;8.67;;
65238;SDS011;51827;51.186;6.926;2023-01-26T04:55:21;11.70;;;7.47;;
65238;SDS011;51827;51.186;6.926;2023-01-26T04:57:23;11.63;;;7.70;;
65238;SDS011;51827;51.186;6.926;2023-01-26T04:58:23;10.67;;;7.60;;
65238;SDS011;51827;51.186;6.926;2023-01-26T04:59:24;11.50;;;8.20;;
65238;SDS011;51827;51.186;6.926;2023-01-26T05:00:24;10.73;;;7.50;;
65238;SDS011;51827;51.186;6.926;2023-01-26T05:01:24;12.87;;;8.03;;
65238;SDS011;51827;51.186;6.926;2023-01-26T05:02:25;12.25;;;7.93;;
65238;SDS011;51827;51.186;6.926;2023-01-26T05:03:25;11.00;;;7.80;;
65238;SDS011;51827;51.186;6.926;2023-01-26T05:04:25;11.32;;;7.53;;
65238;SDS011;51827;51.186;6.926;2023-01-26T05:05:26;12.43;;;7.83;;
65238;SDS011;51827;51.186;6.926;2023-01-26T05:06:26;10.97;;;8.00;;
65238;SDS011;51827;51.186;6.926;2023-01-26T05:07:26;10.97;;;7.73;;
65238;SDS011;51827;51.186;6.926;2023-01-26T05:08:26;13.07;;;7.90;;
65238;SDS011;51827;51.186;6.926;2023-01-26T05:09:27;12.33;;;8.03;;
65238;SDS011;51827;51.186;6.926;2023-01-26T05:10:27;10.47;;;7.07;;
65238;SDS011;51827;51.186;6.926;2023-01-26T05:11:27;10.83;;;7.80;;
65238;SDS011;51827;51.186;6.926;2023-01-26T05:12:27;10.80;;;7.60;;
65238;SDS011;51827;51.186;6.926;2023-01-26T05:13:28;11.27;;;7.60;;
65238;SDS011;51827;51.186;6.926;2023-01-26T05:14:28;11.67;;;7.73;;
65238;SDS011;51827;51.186;6.926;2023-01-26T05:15:28;10.53;;;7.53;;
65238;SDS011;51827;51.186;6.926;2023-01-26T05:16:28;11.13;;;7.63;;
65238;SDS011;51827;51.186;6.926;2023-01-26T05:17:29;10.63;;;7.67;;
65238;SDS011;51827;51.186;6.926;2023-01-26T05:18:29;10.87;;;7.70;;
65238;SDS011;51827;51.186;6.926;2023-01-26T05:19:29;12.50;;;7.90;;
65238;SDS011;51827;51.186;6.926;2023-01-26T05:20:30;10.73;;;8.03;;
65238;SDS011;51827;51.186;6.926;2023-01-26T05:21:30;10.90;;;7.60;;
65238;SDS011;51827;51.186;6.926;2023-01-26T05:22:31;11.00;;;7.60;;
65238;SDS011;51827;51.186;6.926;2023-01-26T05:23:31;11.30;;;7.90;;
65238;SDS011;51827;51.186;6.926;2023-01-26T05:24:31;11.97;;;7.77;;
65238;SDS011;51827;51.186;6.926;2023-01-26T05:25:31;11.23;;;7.70;;
65238;SDS011;51827;51.186;6.926;2023-01-26T05:26:32;11.67;;;7.67;;
65238;SDS011;51827;51.186;6.926;2023-01-26T05:27:32;11.53;;;7.57;;
65238;SDS011;51827;51.186;6.926;2023-01-26T05:28:33;11.13;;;7.87;;
65238;SDS011;51827;51.186;6.926;2023-01-26T05:29:34;13.20;;;7.82;;
65238;SDS011;51827;51.186;6.926;2023-01-26T05:30:34;11.27;;;7.37;;
65238;SDS011;51827;51.186;6.926;2023-01-26T05:31:34;11.63;;;7.37;;
65238;SDS011;51827;51.186;6.926;2023-01-26T05:32:35;12.13;;;7.43;;
65238;SDS011;51827;51.186;6.926;2023-01-26T05:33:35;11.67;;;7.73;;
65238;SDS011;51827;51.186;6.926;2023-01-26T05:34:35;10.83;;;7.13;;
65238;SDS011;51827;51.186;6.926;2023-01-26T05:35:36;12.43;;;8.17;;
65238;SDS011;51827;51.186;6.926;2023-01-26T05:36:36;11.40;;;7.65;;
65238;SDS011;51827;51.186;6.926;2023-01-26T05:37:36;10.80;;;7.83;;
65238;SDS011;51827;51.186;6.926;2023-01-26T05:38:36;11.93;;;7.67;;
65238;SDS011;51827;51.186;6.926;2023-01-26T05:39:37;11.17;;;7.53;;
65238;SDS011;51827;51.186;6.926;2023-01-26T05:40:37;11.83;;;7.90;;
65238;SDS011;51827;51.186;6.926;2023-01-26T05:41:37;10.23;;;7.47;;
65238;SDS011;51827;51.186;6.926;2023-01-26T05:42:37;11.87;;;8.03;;
65238;SDS011;51827;51.186;6.926;2023-01-26T05:43:38;10.97;;;8.00;;
65238;SDS011;51827;51.186;6.926;2023-01-26T05:44:38;13.20;;;8.43;;
65238;SDS011;51827;51.186;6.926;2023-01-26T05:45:38;12.63;;;8.17;;
65238;SDS011;51827;51.186;6.926;2023-01-26T05:46:39;14.75;;;8.73;;
65238;SDS011;51827;51.186;6.926;2023-01-26T05:47:39;14.50;;;8.77;;
65238;SDS011;51827;51.186;6.926;2023-01-26T05:48:41;16.67;;;8.93;;
65238;SDS011;51827;51.186;6.926;2023-01-26T05:49:41;21.53;;;9.93;;
65238;SDS011;51827;51.186;6.926;2023-01-26T05:50:42;32.10;;;10.87;;
65238;SDS011;51827;51.186;6.926;2023-01-26T05:51:42;51.80;;;12.73;;
65238;SDS011;51827;51.186;6.926;2023-01-26T05:52:42;30.87;;;10.97;;
65238;SDS011;51827;51.186;6.926;2023-01-26T05:53:43;32.78;;;12.02;;
65238;SDS011;51827;51.186;6.926;2023-01-26T05:54:43;37.67;;;12.47;;
65238;SDS011;51827;51.186;6.926;2023-01-26T05:55:43;48.47;;;12.20;;
65238;SDS011;51827;51.186;6.926;2023-01-26T05:56:44;35.53;;;11.37;;
65238;SDS011;51827;51.186;6.926;2023-01-26T05:57:44;42.83;;;12.30;;
65238;SDS011;51827;51.186;6.926;2023-01-26T05:58:44;37.03;;;12.85;;
65238;SDS011;51827;51.186;6.926;2023-01-26T05:59:45;34.20;;;12.70;;
65238;SDS011;51827;51.186;6.926;2023-01-26T06:00:45;35.10;;;11.87;;
65238;SDS011;51827;51.186;6.926;2023-01-26T06:01:45;38.40;;;12.80;;
65238;SDS011;51827;51.186;6.926;2023-01-26T06:02:45;31.10;;;11.87;;
65238;SDS011;51827;51.186;6.926;2023-01-26T06:03:46;41.77;;;11.80;;
65238;SDS011;51827;51.186;6.926;2023-01-26T06:04:46;43.00;;;11.93;;
65238;SDS011;51827;51.186;6.926;2023-01-26T06:05:51;31.07;;;11.63;;
65238;SDS011;51827;51.186;6.926;2023-01-26T06:06:52;30.83;;;11.63;;
65238;SDS011;51827;51.186;6.926;2023-01-26T06:07:53;31.42;;;11.60;;
65238;SDS011;51827;51.186;6.926;2023-01-26T06:08:53;29.97;;;11.47;;
65238;SDS011;51827;51.186;6.926;2023-01-26T06:09:54;30.23;;;11.47;;
65238;SDS011;51827;51.186;6.926;2023-01-26T06:10:58;30.03;;;11.40;;
65238;SDS011;51827;51.186;6.926;2023-01-26T06:11:59;28.98;;;11.02;;
65238;SDS011;51827;51.186;6.926;2023-01-26T06:12:59;27.57;;;10.57;;